createdAt,value
2022-10-23T00:00:28.285Z,100.00
2022-10-23T00:03:30.856Z,100.00
2022-10-23T00:06:34.244Z,100.00
2022-10-23T00:09:36.714Z,100.00
2022-10-23T00:12:39.295Z,100.00
2022-10-23T00:15:42.031Z,100.00
2022-10-23T00:18:45.698Z,100.00
2022-10-23T00:21:48.353Z,100.00
2022-10-23T00:24:50.628Z,100.00
2022-10-23T00:27:53.224Z,100.00
2022-10-23T00:30:55.573Z,100.00
2022-10-23T00:33:58.123Z,100.00
2022-10-23T00:37:00.247Z,100.00
2022-10-23T00:40:04.656Z,100.00
2022-10-23T00:43:13.935Z,100.00
2022-10-23T00:46:16.345Z,100.00
2022-10-23T00:49:20.218Z,100.00
2022-10-23T00:52:22.820Z,100.00
2022-10-23T00:55:26.738Z,100.00
2022-10-23T00:58:29.508Z,100.00
2022-10-23T01:01:32.244Z,100.00
2022-10-23T01:04:36.370Z,100.00
2022-10-23T01:07:49.444Z,100.00
2022-10-23T01:11:16.488Z,100.00
2022-10-23T01:15:11.206Z,100.00
2022-10-23T01:18:31.909Z,100.00
2022-10-23T01:21:54.333Z,100.00
2022-10-23T01:25:00.928Z,100.00
2022-10-23T01:28:08.911Z,100.00
2022-10-23T01:31:17.760Z,100.00
2022-10-23T01:34:29.721Z,100.00
2022-10-23T01:38:05.462Z,100.00
2022-10-23T01:41:14.726Z,100.00
2022-10-23T01:44:28.376Z,100.00
2022-10-23T01:47:35.387Z,100.00
2022-10-23T01:50:41.196Z,100.00
2022-10-23T01:53:47.359Z,100.00
2022-10-23T01:56:52.432Z,100.00
2022-10-23T02:00:05.119Z,100.00
2022-10-23T02:03:12.483Z,100.00
2022-10-23T02:06:15.147Z,100.00
2022-10-23T02:09:17.464Z,100.00
2022-10-23T02:12:49.597Z,100.00
2022-10-23T02:16:16.708Z,100.00
2022-10-23T02:19:29.325Z,100.00
2022-10-23T02:22:54.350Z,100.00
2022-10-23T02:26:02.504Z,100.00
2022-10-23T02:29:10.983Z,100.00
2022-10-23T02:32:15.753Z,100.00
2022-10-23T02:35:21.081Z,100.00
2022-10-23T02:38:36.814Z,100.00
2022-10-23T02:41:45.253Z,100.00
2022-10-23T02:44:55.667Z,100.00
2022-10-23T02:48:04.565Z,100.00
2022-10-23T02:51:18.307Z,100.00
2022-10-23T02:54:39.313Z,100.00
2022-10-23T02:58:04.998Z,100.00
2022-10-23T03:01:16.120Z,100.00
2022-10-23T03:04:21.384Z,100.00
2022-10-23T03:07:26.537Z,100.00
2022-10-23T03:10:33.461Z,100.00
2022-10-23T03:13:36.018Z,100.00
2022-10-23T03:16:38.185Z,100.00
2022-10-23T03:19:40.670Z,100.00
2022-10-23T03:22:43.059Z,100.00
2022-10-23T03:25:45.823Z,100.00
2022-10-23T03:28:56.018Z,100.00
2022-10-23T03:31:59.000Z,100.00
2022-10-23T03:35:01.345Z,100.00
2022-10-23T03:38:04.007Z,100.00
2022-10-23T03:41:06.271Z,100.00
2022-10-23T03:44:08.772Z,100.00
2022-10-23T03:47:12.072Z,100.00
2022-10-23T03:50:14.840Z,100.00
2022-10-23T03:53:17.012Z,100.00
2022-10-23T03:56:19.528Z,100.00
2022-10-23T03:59:21.735Z,100.00
2022-10-23T04:02:24.691Z,100.00
2022-10-23T04:05:27.529Z,100.00
2022-10-23T04:08:29.873Z,100.00
2022-10-23T04:11:33.065Z,100.00
2022-10-23T04:14:35.357Z,100.00
2022-10-23T04:17:38.619Z,100.00
2022-10-23T04:20:40.928Z,100.00
2022-10-23T04:23:43.853Z,100.00
2022-10-23T04:26:46.313Z,100.00
2022-10-23T04:29:49.299Z,100.00
2022-10-23T04:32:52.220Z,100.00
2022-10-23T04:35:54.911Z,100.00
2022-10-23T04:38:57.272Z,100.00
2022-10-23T04:42:00.139Z,100.00
2022-10-23T04:45:02.363Z,100.00
2022-10-23T04:48:05.089Z,100.00
2022-10-23T04:51:11.115Z,100.00
2022-10-23T04:54:14.506Z,100.00
2022-10-23T04:57:17.222Z,100.00
2022-10-23T05:00:20.904Z,100.00
2022-10-23T05:03:24.909Z,100.00
2022-10-23T05:06:27.568Z,100.00
2022-10-23T05:09:30.181Z,100.00
2022-10-23T05:12:34.633Z,100.00
2022-10-23T05:15:38.274Z,100.00
2022-10-23T05:18:47.735Z,100.00
2022-10-23T05:21:55.934Z,100.00
2022-10-23T05:25:02.149Z,100.00
2022-10-23T05:28:05.676Z,100.00
2022-10-23T05:31:08.374Z,100.00
2022-10-23T05:34:15.157Z,100.00
2022-10-23T05:37:18.202Z,100.00
2022-10-23T05:40:20.820Z,100.00
2022-10-23T05:43:26.017Z,100.00
2022-10-23T05:46:29.007Z,100.00
2022-10-23T05:49:31.942Z,100.00
2022-10-23T05:52:42.332Z,100.00
2022-10-23T05:55:45.436Z,100.00
2022-10-23T05:58:47.678Z,100.00
2022-10-23T06:01:50.539Z,100.00
2022-10-23T06:04:53.738Z,100.00
2022-10-23T06:08:00.296Z,100.00
2022-10-23T06:11:11.174Z,100.00
2022-10-23T06:14:13.588Z,100.00
2022-10-23T06:17:16.810Z,100.00
2022-10-23T06:20:19.835Z,100.00
2022-10-23T06:23:26.449Z,100.00
2022-10-23T06:26:29.916Z,100.00
2022-10-23T06:29:32.988Z,100.00
2022-10-23T06:32:36.036Z,100.00
2022-10-23T06:35:39.406Z,100.00
2022-10-23T06:38:41.613Z,100.00
2022-10-23T06:41:45.410Z,100.00
2022-10-23T06:44:52.023Z,100.00
2022-10-23T06:47:58.423Z,100.00
2022-10-23T06:51:08.394Z,100.00
2022-10-23T06:54:11.515Z,100.00
2022-10-23T06:57:14.537Z,100.00
2022-10-23T07:00:17.317Z,100.00
2022-10-23T07:03:21.246Z,100.00
2022-10-23T07:06:23.737Z,100.00
2022-10-23T07:09:26.198Z,100.00
2022-10-23T07:12:31.152Z,100.00
2022-10-23T07:15:36.193Z,100.00
2022-10-23T07:18:39.197Z,100.00
2022-10-23T07:21:44.300Z,100.00
2022-10-23T07:24:47.712Z,100.00
2022-10-23T07:27:50.483Z,100.00
2022-10-23T07:31:02.406Z,100.00
2022-10-23T07:34:06.457Z,100.00
2022-10-23T07:37:09.525Z,100.00
2022-10-23T07:40:12.496Z,99.62
2022-10-23T07:43:17.288Z,100.00
2022-10-23T07:46:19.471Z,100.00
2022-10-23T07:49:23.173Z,100.00
2022-10-23T07:52:25.580Z,100.00
2022-10-23T07:55:31.172Z,100.00
2022-10-23T07:58:33.806Z,100.00
2022-10-23T08:01:38.727Z,99.96
2022-10-23T08:04:41.292Z,100.00
2022-10-23T08:07:45.301Z,100.00
2022-10-23T08:10:49.704Z,100.00
2022-10-23T08:13:56.123Z,98.81
2022-10-23T08:16:59.522Z,95.78
2022-10-23T08:20:03.539Z,97.45
2022-10-23T08:23:07.509Z,94.16
2022-10-23T08:26:10.169Z,95.07
2022-10-23T08:29:12.669Z,94.42
2022-10-23T08:32:15.328Z,95.42
2022-10-23T08:35:20.082Z,96.50
2022-10-23T08:38:23.241Z,96.05
2022-10-23T08:41:32.387Z,97.24
2022-10-23T08:44:50.078Z,97.40
2022-10-23T08:47:57.194Z,94.39
2022-10-23T08:51:13.572Z,96.13
2022-10-23T08:54:24.317Z,96.13
2022-10-23T08:57:34.601Z,97.50
2022-10-23T09:00:37.205Z,97.95
2022-10-23T09:03:39.391Z,98.63
2022-10-23T09:06:55.990Z,97.23
2022-10-23T09:10:25.064Z,96.84
2022-10-23T09:13:55.878Z,95.99
2022-10-23T09:17:16.409Z,95.04
2022-10-23T09:20:22.588Z,95.12
2022-10-23T09:23:24.838Z,95.49
2022-10-23T09:26:27.426Z,94.52
2022-10-23T09:29:32.889Z,94.34
2022-10-23T09:32:38.584Z,93.37
2022-10-23T09:35:53.079Z,93.93
2022-10-23T09:38:58.938Z,94.32
2022-10-23T09:42:13.276Z,93.57
2022-10-23T09:45:27.747Z,93.91
2022-10-23T09:48:31.113Z,92.52
2022-10-23T09:51:34.472Z,92.76
2022-10-23T09:54:39.676Z,92.40
2022-10-23T09:57:44.873Z,91.29
2022-10-23T10:00:50.169Z,89.52
2022-10-23T10:03:55.811Z,88.13
2022-10-23T10:06:59.489Z,88.53
2022-10-23T10:10:02.006Z,89.40
2022-10-23T10:13:20.511Z,89.33
2022-10-23T10:16:35.177Z,89.69
2022-10-23T10:20:20.866Z,88.32
2022-10-23T10:23:30.814Z,89.63
2022-10-23T10:26:57.471Z,89.86
2022-10-23T10:30:05.772Z,88.82
2022-10-23T10:33:17.170Z,89.42
2022-10-23T10:36:55.472Z,89.81
2022-10-23T10:40:06.580Z,91.42
2022-10-23T10:43:44.384Z,89.67
2022-10-23T10:47:15.881Z,90.75
2022-10-23T10:50:30.490Z,90.69
2022-10-23T10:53:55.069Z,91.10
2022-10-23T10:57:00.125Z,89.98
2022-10-23T11:00:25.940Z,91.44
2022-10-23T11:03:39.196Z,92.17
2022-10-23T11:06:46.355Z,91.67
2022-10-23T11:09:49.873Z,92.26
2022-10-23T11:12:52.455Z,94.64
2022-10-23T11:16:04.567Z,92.31
2022-10-23T11:19:27.481Z,92.42
2022-10-23T11:22:37.800Z,92.89
2022-10-23T11:25:55.153Z,93.60
2022-10-23T11:29:35.381Z,94.80
2022-10-23T11:33:13.871Z,93.46
2022-10-23T11:36:17.893Z,92.93
2022-10-23T11:39:29.585Z,92.13
2022-10-23T11:42:37.096Z,93.22
2022-10-23T11:45:40.766Z,92.50
2022-10-23T11:48:44.317Z,93.15
2022-10-23T11:51:46.475Z,91.11
2022-10-23T11:54:48.939Z,91.56
2022-10-23T11:58:23.086Z,93.19
2022-10-23T12:01:36.319Z,93.23
2022-10-23T12:04:46.653Z,93.84
2022-10-23T12:07:55.872Z,92.57
2022-10-23T12:10:58.409Z,91.61
2022-10-23T12:14:00.627Z,90.26
2022-10-23T12:17:03.685Z,91.66
2022-10-23T12:20:08.741Z,92.62
2022-10-23T12:23:27.302Z,92.84
2022-10-23T12:26:51.619Z,90.26
2022-10-23T12:30:01.378Z,89.89
2022-10-23T12:33:24.175Z,90.42
2022-10-23T12:36:26.544Z,89.76
2022-10-23T12:39:30.945Z,89.46
2022-10-23T12:42:33.910Z,91.11
2022-10-23T12:45:40.052Z,91.86
2022-10-23T12:48:50.200Z,92.69
2022-10-23T12:52:16.757Z,92.06
2022-10-23T12:55:19.445Z,92.06
2022-10-23T12:58:24.463Z,91.84
2022-10-23T13:01:34.787Z,91.28
2022-10-23T13:04:37.866Z,91.65
2022-10-23T13:07:46.365Z,92.54
2022-10-23T13:10:50.242Z,92.45
2022-10-23T13:13:53.740Z,90.33
2022-10-23T13:17:05.010Z,90.13
2022-10-23T13:20:22.269Z,91.36
2022-10-23T13:23:35.001Z,92.19
2022-10-23T13:26:47.274Z,93.36
2022-10-23T13:29:49.387Z,93.99
2022-10-23T13:32:51.903Z,94.51
2022-10-23T13:36:13.421Z,94.29
2022-10-23T13:39:16.607Z,93.74
2022-10-23T13:42:18.805Z,94.75
2022-10-23T13:45:26.696Z,93.06
2022-10-23T13:48:31.888Z,92.60
2022-10-23T13:51:42.803Z,92.77
2022-10-23T13:54:45.474Z,92.90
2022-10-23T13:57:47.967Z,93.49
2022-10-23T14:00:52.564Z,93.94
2022-10-23T14:03:56.887Z,94.37
2022-10-23T14:06:59.032Z,95.76
2022-10-23T14:10:01.576Z,95.22
2022-10-23T14:13:03.692Z,95.48
2022-10-23T14:16:08.150Z,94.89
2022-10-23T14:19:11.779Z,95.46
2022-10-23T14:22:14.332Z,97.05
2022-10-23T14:25:16.864Z,97.05
2022-10-23T14:28:19.385Z,97.72
2022-10-23T14:31:21.933Z,98.85
2022-10-23T14:34:24.423Z,98.30
2022-10-23T14:37:26.536Z,100.00
2022-10-23T14:40:29.018Z,100.00
2022-10-23T14:43:31.159Z,100.00
2022-10-23T14:46:37.547Z,100.00
2022-10-23T14:49:40.402Z,100.00
2022-10-23T14:52:42.951Z,100.00
2022-10-23T14:55:45.092Z,100.00
2022-10-23T14:58:47.580Z,100.00
2022-10-23T15:01:49.848Z,100.00
2022-10-23T15:04:52.426Z,100.00
2022-10-23T15:07:55.279Z,100.00
2022-10-23T15:11:01.171Z,100.00
2022-10-23T15:14:03.310Z,100.00
2022-10-23T15:17:05.829Z,100.00
2022-10-23T15:20:08.818Z,100.00
2022-10-23T15:23:11.282Z,100.00
2022-10-23T15:26:20.345Z,100.00
2022-10-23T15:29:23.241Z,100.00
2022-10-23T15:32:25.367Z,100.00
2022-10-23T15:38:30.052Z,100.00
2022-10-23T15:41:34.239Z,100.00
2022-10-23T15:44:36.451Z,100.00
2022-10-23T15:47:38.892Z,100.00
2022-10-23T15:50:41.070Z,100.00
2022-10-23T15:53:43.632Z,100.00
2022-10-23T15:56:48.426Z,100.00
2022-10-23T15:59:51.186Z,100.00
2022-10-23T16:02:53.415Z,100.00
2022-10-23T16:05:55.982Z,100.00
2022-10-23T16:08:58.278Z,100.00
2022-10-23T16:12:00.804Z,100.00
2022-10-23T16:15:03.037Z,100.00
2022-10-23T16:18:06.523Z,100.00
2022-10-23T16:21:17.807Z,100.00
2022-10-23T16:24:20.416Z,100.00
2022-10-23T16:27:22.605Z,100.00
2022-10-23T16:30:25.075Z,100.00
2022-10-23T16:33:27.414Z,100.00
2022-10-23T16:36:29.859Z,100.00
2022-10-23T16:39:33.913Z,100.00
2022-10-23T16:42:49.069Z,100.00
2022-10-23T16:46:07.444Z,100.00
2022-10-23T16:49:09.965Z,100.00
2022-10-23T16:52:12.156Z,100.00
2022-10-23T16:55:14.820Z,100.00
2022-10-23T16:58:16.966Z,100.00
2022-10-23T17:01:21.975Z,100.00
2022-10-23T17:04:24.261Z,100.00
2022-10-23T17:07:26.862Z,100.00
2022-10-23T17:10:29.043Z,100.00
2022-10-23T17:13:31.860Z,100.00
2022-10-23T17:16:38.252Z,100.00
2022-10-23T17:19:46.020Z,100.00
2022-10-23T17:22:48.603Z,100.00
2022-10-23T17:25:51.088Z,100.00
2022-10-23T17:28:53.259Z,100.00
2022-10-23T17:31:55.772Z,100.00
2022-10-23T17:34:57.974Z,100.00
2022-10-23T17:38:00.666Z,100.00
2022-10-23T17:41:03.277Z,100.00
2022-10-23T17:44:06.082Z,100.00
2022-10-23T17:47:08.289Z,100.00
2022-10-23T17:50:12.288Z,100.00
2022-10-23T17:53:14.444Z,100.00
2022-10-23T17:56:22.751Z,100.00
2022-10-23T17:59:24.863Z,100.00
2022-10-23T18:02:27.528Z,100.00
2022-10-23T18:05:33.125Z,100.00
2022-10-23T18:08:36.832Z,100.00
2022-10-23T18:11:46.908Z,100.00
2022-10-23T18:14:50.175Z,100.00
2022-10-23T18:17:52.727Z,100.00
2022-10-23T18:20:56.975Z,100.00
2022-10-23T18:24:00.506Z,100.00
2022-10-23T18:27:02.675Z,100.00
2022-10-23T18:30:06.397Z,100.00
2022-10-23T18:33:08.589Z,100.00
2022-10-23T18:36:32.109Z,100.00
2022-10-23T18:39:34.265Z,100.00
2022-10-23T18:42:36.749Z,100.00
2022-10-23T18:45:42.378Z,100.00
2022-10-23T18:48:45.689Z,100.00
2022-10-23T18:51:49.854Z,100.00
2022-10-23T18:54:52.402Z,100.00
2022-10-23T18:57:54.580Z,100.00
2022-10-23T19:00:57.214Z,100.00
2022-10-23T19:04:01.279Z,100.00
2022-10-23T19:07:03.921Z,100.00
2022-10-23T19:10:06.771Z,100.00
2022-10-23T19:13:09.529Z,100.00
2022-10-23T19:16:33.323Z,100.00
2022-10-23T19:19:41.056Z,100.00
2022-10-23T19:22:47.178Z,100.00
2022-10-23T19:25:49.903Z,100.00
2022-10-23T19:31:55.608Z,100.00
2022-10-23T19:34:58.990Z,100.00
2022-10-23T19:38:01.510Z,100.00
2022-10-23T19:41:03.941Z,100.00
2022-10-23T19:44:06.391Z,100.00
2022-10-23T19:47:08.544Z,100.00
2022-10-23T19:50:11.056Z,100.00
2022-10-23T19:53:13.198Z,100.00
2022-10-23T19:56:15.706Z,100.00
2022-10-23T19:59:18.336Z,100.00
2022-10-23T20:02:21.119Z,100.00
2022-10-23T20:05:23.774Z,100.00
2022-10-23T20:08:25.952Z,100.00
2022-10-23T20:11:30.669Z,100.00
2022-10-23T20:14:33.445Z,100.00
2022-10-23T20:17:36.115Z,100.00
2022-10-23T20:20:42.527Z,100.00
2022-10-23T20:23:45.285Z,100.00
2022-10-23T20:26:52.324Z,100.00
2022-10-23T20:29:54.847Z,100.00
2022-10-23T20:32:56.999Z,100.00
2022-10-23T20:35:59.504Z,100.00
2022-10-23T20:39:04.379Z,100.00
2022-10-23T20:42:07.629Z,100.00
2022-10-23T20:45:10.430Z,100.00
2022-10-23T20:48:12.912Z,100.00
2022-10-23T20:51:20.369Z,100.00
2022-10-23T20:54:25.149Z,100.00
2022-10-23T20:57:27.641Z,100.00
2022-10-23T21:00:30.224Z,100.00
2022-10-23T21:03:33.019Z,100.00
2022-10-23T21:06:51.594Z,100.00
2022-10-23T21:09:57.651Z,100.00
2022-10-23T21:13:00.178Z,100.00
2022-10-23T21:16:18.841Z,100.00
2022-10-23T21:19:21.290Z,100.00
2022-10-23T21:22:23.494Z,100.00
2022-10-23T21:25:25.975Z,100.00
2022-10-23T21:28:28.379Z,100.00
2022-10-23T21:31:30.920Z,100.00
2022-10-23T21:34:33.101Z,100.00
2022-10-23T21:37:37.652Z,100.00
2022-10-23T21:40:39.844Z,100.00
2022-10-23T21:43:42.340Z,100.00
2022-10-23T21:46:44.491Z,100.00
2022-10-23T21:49:47.051Z,100.00
2022-10-23T21:52:52.784Z,100.00
2022-10-23T21:56:01.051Z,100.00
2022-10-23T22:02:09.383Z,100.00
2022-10-23T22:05:12.015Z,100.00
2022-10-23T22:08:14.192Z,100.00
2022-10-23T22:11:16.817Z,100.00
2022-10-23T22:14:19.388Z,100.00
2022-10-23T22:17:21.986Z,100.00
2022-10-23T22:20:24.191Z,100.00
2022-10-23T22:23:26.687Z,100.00
2022-10-23T22:26:36.630Z,100.00
2022-10-23T22:29:39.140Z,100.00
2022-10-23T22:32:41.407Z,100.00
2022-10-23T22:35:44.043Z,100.00
2022-10-23T22:38:46.936Z,100.00
2022-10-23T22:41:49.640Z,100.00
2022-10-23T22:44:51.792Z,100.00
2022-10-23T22:47:54.295Z,100.00
2022-10-23T22:50:56.548Z,100.00
2022-10-23T22:53:59.664Z,100.00
2022-10-23T22:57:01.853Z,100.00
2022-10-23T23:00:06.920Z,100.00
2022-10-23T23:03:11.512Z,100.00
2022-10-23T23:06:14.577Z,100.00
2022-10-23T23:09:18.130Z,100.00
2022-10-23T23:12:20.984Z,100.00
2022-10-23T23:15:23.102Z,100.00
2022-10-23T23:18:26.126Z,100.00
2022-10-23T23:21:29.919Z,100.00
2022-10-23T23:24:32.572Z,100.00
2022-10-23T23:27:34.768Z,100.00
2022-10-23T23:30:37.417Z,100.00
2022-10-23T23:33:39.653Z,100.00
2022-10-23T23:36:49.255Z,100.00
2022-10-23T23:39:54.717Z,100.00
2022-10-23T23:42:57.203Z,100.00
2022-10-23T23:45:59.512Z,100.00
2022-10-23T23:49:02.124Z,100.00
2022-10-23T23:52:04.447Z,100.00
2022-10-23T23:55:08.043Z,100.00
2022-10-23T23:58:11.975Z,100.00
